sensor_id;sensor_type;location;lat;lon;timestamp;P1;durP1;ratioP1;P2;durP2;ratioP2
51286;SDS011;37364;46.974;18.916;2023-06-22T00:00:50;1999.90;;;999.90;;
51286;SDS011;37364;46.974;18.916;2023-06-22T00:03:25;1999.90;;;999.90;;
51286;SDS011;37364;46.974;18.916;2023-06-22T00:05:55;1999.90;;;999.90;;
51286;SDS011;37364;46.974;18.916;2023-06-22T00:08:26;1999.90;;;999.90;;
51286;SDS011;37364;46.974;18.916;2023-06-22T00:10:56;1999.90;;;999.90;;
51286;SDS011;37364;46.974;18.916;2023-06-22T00:13:26;1999.90;;;999.90;;
51286;SDS011;37364;46.974;18.916;2023-06-22T00:15:56;1999.90;;;999.90;;
51286;SDS011;37364;46.974;18.916;2023-06-22T00:18:29;1999.90;;;999.90;;
51286;SDS011;37364;46.974;18.916;2023-06-22T00:20:59;1999.90;;;999.90;;
51286;SDS011;37364;46.974;18.916;2023-06-22T00:23:30;1999.90;;;999.90;;
51286;SDS011;37364;46.974;18.916;2023-06-22T00:26:01;1999.90;;;999.90;;
51286;SDS011;37364;46.974;18.916;2023-06-22T00:28:32;1999.90;;;999.90;;
51286;SDS011;37364;46.974;18.916;2023-06-22T00:31:02;1999.90;;;999.90;;
51286;SDS011;37364;46.974;18.916;2023-06-22T00:33:35;1999.90;;;999.90;;
51286;SDS011;37364;46.974;18.916;2023-06-22T00:36:05;1999.90;;;999.90;;
51286;SDS011;37364;46.974;18.916;2023-06-22T00:38:39;1999.90;;;999.90;;
51286;SDS011;37364;46.974;18.916;2023-06-22T00:41:10;1999.90;;;999.90;;
51286;SDS011;37364;46.974;18.916;2023-06-22T00:43:40;1999.90;;;999.90;;
51286;SDS011;37364;46.974;18.916;2023-06-22T00:46:11;1999.90;;;999.90;;
51286;SDS011;37364;46.974;18.916;2023-06-22T00:48:45;1999.90;;;999.90;;
51286;SDS011;37364;46.974;18.916;2023-06-22T00:51:15;1999.90;;;999.90;;
51286;SDS011;37364;46.974;18.916;2023-06-22T00:53:51;1999.90;;;999.90;;
51286;SDS011;37364;46.974;18.916;2023-06-22T00:56:22;1999.90;;;999.90;;
51286;SDS011;37364;46.974;18.916;2023-06-22T00:58:52;1999.90;;;999.90;;
51286;SDS011;37364;46.974;18.916;2023-06-22T01:01:24;1999.90;;;999.90;;
51286;SDS011;37364;46.974;18.916;2023-06-22T01:03:58;1999.90;;;999.90;;
51286;SDS011;37364;46.974;18.916;2023-06-22T01:06:31;1999.90;;;999.90;;
51286;SDS011;37364;46.974;18.916;2023-06-22T01:09:09;1999.90;;;999.90;;
51286;SDS011;37364;46.974;18.916;2023-06-22T01:11:45;1999.90;;;999.90;;
51286;SDS011;37364;46.974;18.916;2023-06-22T01:14:20;1999.90;;;999.90;;
51286;SDS011;37364;46.974;18.916;2023-06-22T01:16:56;1999.90;;;999.90;;
51286;SDS011;37364;46.974;18.916;2023-06-22T01:19:37;1999.90;;;999.90;;
51286;SDS011;37364;46.974;18.916;2023-06-22T01:22:15;1999.90;;;999.90;;
51286;SDS011;37364;46.974;18.916;2023-06-22T01:24:51;1999.90;;;999.90;;
51286;SDS011;37364;46.974;18.916;2023-06-22T01:27:31;1999.90;;;999.90;;
51286;SDS011;37364;46.974;18.916;2023-06-22T01:30:10;1999.90;;;999.90;;
51286;SDS011;37364;46.974;18.916;2023-06-22T01:32:43;1999.90;;;999.90;;
51286;SDS011;37364;46.974;18.916;2023-06-22T01:35:14;1999.90;;;999.90;;
51286;SDS011;37364;46.974;18.916;2023-06-22T01:37:45;1999.90;;;999.90;;
51286;SDS011;37364;46.974;18.916;2023-06-22T01:40:17;1999.90;;;999.90;;
51286;SDS011;37364;46.974;18.916;2023-06-22T01:42:51;1999.90;;;999.90;;
51286;SDS011;37364;46.974;18.916;2023-06-22T01:45:24;1999.90;;;999.90;;
51286;SDS011;37364;46.974;18.916;2023-06-22T01:47:56;1999.90;;;999.90;;
51286;SDS011;37364;46.974;18.916;2023-06-22T01:50:27;1999.90;;;999.90;;
51286;SDS011;37364;46.974;18.916;2023-06-22T01:52:58;1999.90;;;999.90;;
51286;SDS011;37364;46.974;18.916;2023-06-22T01:55:28;1999.90;;;999.90;;
51286;SDS011;37364;46.974;18.916;2023-06-22T01:57:58;1999.90;;;999.90;;
51286;SDS011;37364;46.974;18.916;2023-06-22T02:00:32;1999.90;;;999.90;;
51286;SDS011;37364;46.974;18.916;2023-06-22T02:03:08;1999.90;;;999.90;;
51286;SDS011;37364;46.974;18.916;2023-06-22T02:05:43;1999.90;;;999.90;;
51286;SDS011;37364;46.974;18.916;2023-06-22T02:08:17;1999.90;;;999.90;;
51286;SDS011;37364;46.974;18.916;2023-06-22T02:13:23;1999.90;;;999.90;;
51286;SDS011;37364;46.974;18.916;2023-06-22T02:15:57;1999.90;;;999.90;;
51286;SDS011;37364;46.974;18.916;2023-06-22T02:18:29;1999.90;;;999.90;;
51286;SDS011;37364;46.974;18.916;2023-06-22T02:20:59;1999.90;;;999.90;;
51286;SDS011;37364;46.974;18.916;2023-06-22T02:23:29;1999.90;;;999.90;;
51286;SDS011;37364;46.974;18.916;2023-06-22T02:26:01;1999.90;;;999.90;;
51286;SDS011;37364;46.974;18.916;2023-06-22T02:28:32;1999.90;;;999.90;;
51286;SDS011;37364;46.974;18.916;2023-06-22T02:31:05;1999.90;;;999.90;;
51286;SDS011;37364;46.974;18.916;2023-06-22T02:33:36;1999.90;;;999.90;;
51286;SDS011;37364;46.974;18.916;2023-06-22T02:36:06;1999.90;;;999.90;;
51286;SDS011;37364;46.974;18.916;2023-06-22T02:38:40;1999.90;;;999.90;;
51286;SDS011;37364;46.974;18.916;2023-06-22T02:41:15;1999.90;;;999.90;;
51286;SDS011;37364;46.974;18.916;2023-06-22T02:43:47;1999.90;;;999.90;;
51286;SDS011;37364;46.974;18.916;2023-06-22T02:46:21;1999.90;;;999.90;;
51286;SDS011;37364;46.974;18.916;2023-06-22T02:48:52;1999.90;;;999.90;;
51286;SDS011;37364;46.974;18.916;2023-06-22T02:51:22;1999.90;;;999.90;;
51286;SDS011;37364;46.974;18.916;2023-06-22T02:53:52;1999.90;;;999.90;;
51286;SDS011;37364;46.974;18.916;2023-06-22T02:56:28;1999.90;;;999.90;;
51286;SDS011;37364;46.974;18.916;2023-06-22T02:59:00;1999.90;;;999.90;;
51286;SDS011;37364;46.974;18.916;2023-06-22T03:01:38;1999.90;;;999.90;;
51286;SDS011;37364;46.974;18.916;2023-06-22T03:04:17;1999.90;;;999.90;;
51286;SDS011;37364;46.974;18.916;2023-06-22T03:06:48;1999.90;;;999.90;;
51286;SDS011;37364;46.974;18.916;2023-06-22T03:09:18;1999.90;;;999.90;;
51286;SDS011;37364;46.974;18.916;2023-06-22T03:11:50;1999.90;;;999.90;;
51286;SDS011;37364;46.974;18.916;2023-06-22T03:14:21;1999.90;;;999.90;;
51286;SDS011;37364;46.974;18.916;2023-06-22T03:16:55;1999.90;;;999.90;;
51286;SDS011;37364;46.974;18.916;2023-06-22T03:19:28;1999.90;;;999.90;;
51286;SDS011;37364;46.974;18.916;2023-06-22T03:21:59;1999.90;;;999.90;;
51286;SDS011;37364;46.974;18.916;2023-06-22T03:24:30;1999.90;;;999.90;;
51286;SDS011;37364;46.974;18.916;2023-06-22T03:27:01;1999.90;;;999.90;;
51286;SDS011;37364;46.974;18.916;2023-06-22T03:29:33;1999.90;;;999.90;;
51286;SDS011;37364;46.974;18.916;2023-06-22T03:32:07;1999.90;;;999.90;;
51286;SDS011;37364;46.974;18.916;2023-06-22T03:37:08;1999.90;;;999.90;;
51286;SDS011;37364;46.974;18.916;2023-06-22T03:39:40;1999.90;;;999.90;;
51286;SDS011;37364;46.974;18.916;2023-06-22T03:42:11;1999.90;;;999.90;;
51286;SDS011;37364;46.974;18.916;2023-06-22T03:44:41;1999.90;;;999.90;;
51286;SDS011;37364;46.974;18.916;2023-06-22T03:47:14;1999.90;;;999.90;;
51286;SDS011;37364;46.974;18.916;2023-06-22T03:49:44;1999.90;;;999.90;;
51286;SDS011;37364;46.974;18.916;2023-06-22T03:52:14;1999.90;;;999.90;;
51286;SDS011;37364;46.974;18.916;2023-06-22T03:54:45;1999.90;;;999.90;;
51286;SDS011;37364;46.974;18.916;2023-06-22T03:57:15;1999.90;;;999.90;;
51286;SDS011;37364;46.974;18.916;2023-06-22T03:59:45;1999.90;;;999.90;;
51286;SDS011;37364;46.974;18.916;2023-06-22T04:02:18;1999.90;;;999.90;;
51286;SDS011;37364;46.974;18.916;2023-06-22T04:04:48;1999.90;;;999.90;;
51286;SDS011;37364;46.974;18.916;2023-06-22T04:07:18;1999.90;;;999.90;;
51286;SDS011;37364;46.974;18.916;2023-06-22T04:09:48;1999.90;;;999.90;;
51286;SDS011;37364;46.974;18.916;2023-06-22T04:12:19;1999.90;;;999.90;;
51286;SDS011;37364;46.974;18.916;2023-06-22T04:14:49;1999.90;;;999.90;;
51286;SDS011;37364;46.974;18.916;2023-06-22T04:17:22;1999.90;;;999.90;;
51286;SDS011;37364;46.974;18.916;2023-06-22T04:19:52;1999.90;;;999.90;;
51286;SDS011;37364;46.974;18.916;2023-06-22T04:22:22;1999.90;;;999.90;;
51286;SDS011;37364;46.974;18.916;2023-06-22T04:24:52;1999.90;;;999.90;;
51286;SDS011;37364;46.974;18.916;2023-06-22T04:27:23;1999.90;;;999.90;;
51286;SDS011;37364;46.974;18.916;2023-06-22T04:29:53;1999.90;;;999.90;;
51286;SDS011;37364;46.974;18.916;2023-06-22T04:32:26;1999.90;;;999.90;;
51286;SDS011;37364;46.974;18.916;2023-06-22T04:34:56;1999.90;;;999.90;;
51286;SDS011;37364;46.974;18.916;2023-06-22T04:37:27;1999.90;;;999.90;;
51286;SDS011;37364;46.974;18.916;2023-06-22T04:39:57;1999.90;;;999.90;;
51286;SDS011;37364;46.974;18.916;2023-06-22T04:42:27;1999.90;;;999.90;;
51286;SDS011;37364;46.974;18.916;2023-06-22T04:44:58;1999.90;;;999.90;;
51286;SDS011;37364;46.974;18.916;2023-06-22T04:47:31;1999.90;;;999.90;;
51286;SDS011;37364;46.974;18.916;2023-06-22T04:50:06;1009.88;;;540.75;;
51286;SDS011;37364;46.974;18.916;2023-06-22T04:52:36;1999.90;;;999.90;;
51286;SDS011;37364;46.974;18.916;2023-06-22T04:55:07;1999.90;;;999.90;;
51286;SDS011;37364;46.974;18.916;2023-06-22T04:57:40;1352.20;;;717.22;;
51286;SDS011;37364;46.974;18.916;2023-06-22T05:00:15;1999.90;;;999.90;;
51286;SDS011;37364;46.974;18.916;2023-06-22T05:05:36;1999.90;;;999.90;;
51286;SDS011;37364;46.974;18.916;2023-06-22T05:08:06;1999.90;;;999.90;;
51286;SDS011;37364;46.974;18.916;2023-06-22T05:10:37;1999.90;;;999.90;;
51286;SDS011;37364;46.974;18.916;2023-06-22T05:13:27;1999.90;;;999.90;;
51286;SDS011;37364;46.974;18.916;2023-06-22T05:15:57;1999.90;;;999.90;;
51286;SDS011;37364;46.974;18.916;2023-06-22T05:18:31;1999.90;;;999.90;;
51286;SDS011;37364;46.974;18.916;2023-06-22T05:21:02;1999.90;;;999.90;;
51286;SDS011;37364;46.974;18.916;2023-06-22T05:23:32;1999.90;;;999.90;;
51286;SDS011;37364;46.974;18.916;2023-06-22T05:26:02;1999.90;;;999.90;;
51286;SDS011;37364;46.974;18.916;2023-06-22T05:28:36;1999.90;;;999.90;;
51286;SDS011;37364;46.974;18.916;2023-06-22T05:31:06;1999.90;;;999.90;;
51286;SDS011;37364;46.974;18.916;2023-06-22T05:33:39;1999.90;;;999.90;;
51286;SDS011;37364;46.974;18.916;2023-06-22T05:36:09;1999.90;;;999.90;;
51286;SDS011;37364;46.974;18.916;2023-06-22T05:38:39;1999.90;;;999.90;;
51286;SDS011;37364;46.974;18.916;2023-06-22T05:41:10;1999.90;;;999.90;;
51286;SDS011;37364;46.974;18.916;2023-06-22T05:43:40;1999.90;;;999.90;;
51286;SDS011;37364;46.974;18.916;2023-06-22T05:46:10;1999.90;;;999.90;;
51286;SDS011;37364;46.974;18.916;2023-06-22T05:48:43;1999.90;;;999.90;;
51286;SDS011;37364;46.974;18.916;2023-06-22T05:51:13;1999.90;;;999.90;;
51286;SDS011;37364;46.974;18.916;2023-06-22T05:53:44;1999.90;;;999.90;;
51286;SDS011;37364;46.974;18.916;2023-06-22T05:56:16;1999.90;;;999.90;;
51286;SDS011;37364;46.974;18.916;2023-06-22T05:58:47;1999.90;;;999.90;;
51286;SDS011;37364;46.974;18.916;2023-06-22T06:01:18;1999.90;;;999.90;;
51286;SDS011;37364;46.974;18.916;2023-06-22T06:03:51;1999.90;;;999.90;;
51286;SDS011;37364;46.974;18.916;2023-06-22T06:06:21;1999.90;;;999.90;;
51286;SDS011;37364;46.974;18.916;2023-06-22T06:08:55;1579.43;;;875.15;;
51286;SDS011;37364;46.974;18.916;2023-06-22T06:11:26;1423.60;;;868.20;;
51286;SDS011;37364;46.974;18.916;2023-06-22T06:13:56;1154.10;;;823.63;;
51286;SDS011;37364;46.974;18.916;2023-06-22T06:16:27;1074.72;;;808.42;;
51286;SDS011;37364;46.974;18.916;2023-06-22T06:18:59;1999.90;;;999.90;;
51286;SDS011;37364;46.974;18.916;2023-06-22T06:21:29;1999.90;;;999.90;;
51286;SDS011;37364;46.974;18.916;2023-06-22T06:24:00;1999.90;;;999.90;;
51286;SDS011;37364;46.974;18.916;2023-06-22T06:26:30;1999.90;;;999.90;;
51286;SDS011;37364;46.974;18.916;2023-06-22T06:29:02;1999.90;;;999.90;;
51286;SDS011;37364;46.974;18.916;2023-06-22T06:31:32;1999.90;;;999.90;;
51286;SDS011;37364;46.974;18.916;2023-06-22T06:34:05;1999.90;;;999.90;;
51286;SDS011;37364;46.974;18.916;2023-06-22T06:36:35;1999.90;;;999.90;;
51286;SDS011;37364;46.974;18.916;2023-06-22T06:39:05;1999.90;;;999.90;;
51286;SDS011;37364;46.974;18.916;2023-06-22T06:41:36;1999.90;;;999.90;;
51286;SDS011;37364;46.974;18.916;2023-06-22T06:44:14;1999.90;;;999.90;;
51286;SDS011;37364;46.974;18.916;2023-06-22T06:46:44;1999.90;;;999.90;;
51286;SDS011;37364;46.974;18.916;2023-06-22T06:49:17;1999.90;;;999.90;;
51286;SDS011;37364;46.974;18.916;2023-06-22T06:51:47;242.23;;;53.78;;
51286;SDS011;37364;46.974;18.916;2023-06-22T06:54:17;51.95;;;17.67;;
51286;SDS011;37364;46.974;18.916;2023-06-22T06:56:48;43.47;;;15.90;;
51286;SDS011;37364;46.974;18.916;2023-06-22T06:59:18;30.38;;;12.48;;
51286;SDS011;37364;46.974;18.916;2023-06-22T07:01:48;55.05;;;12.20;;
51286;SDS011;37364;46.974;18.916;2023-06-22T07:04:21;30.08;;;11.60;;
51286;SDS011;37364;46.974;18.916;2023-06-22T07:06:51;22.42;;;11.15;;
51286;SDS011;37364;46.974;18.916;2023-06-22T07:09:21;50.05;;;11.02;;
51286;SDS011;37364;46.974;18.916;2023-06-22T07:11:51;44.08;;;11.23;;
51286;SDS011;37364;46.974;18.916;2023-06-22T07:14:22;35.00;;;11.20;;
51286;SDS011;37364;46.974;18.916;2023-06-22T07:16:52;30.58;;;12.35;;
51286;SDS011;37364;46.974;18.916;2023-06-22T07:19:28;27.98;;;13.27;;
51286;SDS011;37364;46.974;18.916;2023-06-22T07:21:58;39.30;;;13.57;;
51286;SDS011;37364;46.974;18.916;2023-06-22T07:24:28;31.00;;;12.52;;
51286;SDS011;37364;46.974;18.916;2023-06-22T07:26:59;28.38;;;11.90;;
51286;SDS011;37364;46.974;18.916;2023-06-22T07:29:30;45.30;;;17.50;;
51286;SDS011;37364;46.974;18.916;2023-06-22T07:32:00;41.33;;;18.02;;
51286;SDS011;37364;46.974;18.916;2023-06-22T07:34:34;54.05;;;19.10;;
51286;SDS011;37364;46.974;18.916;2023-06-22T07:37:05;55.60;;;26.52;;
51286;SDS011;37364;46.974;18.916;2023-06-22T07:39:35;64.93;;;30.73;;
51286;SDS011;37364;46.974;18.916;2023-06-22T07:42:05;50.53;;;32.08;;
51286;SDS011;37364;46.974;18.916;2023-06-22T07:44:36;55.05;;;31.15;;
51286;SDS011;37364;46.974;18.916;2023-06-22T07:47:06;62.20;;;31.08;;
51286;SDS011;37364;46.974;18.916;2023-06-22T07:49:39;62.80;;;30.95;;
51286;SDS011;37364;46.974;18.916;2023-06-22T07:52:09;69.57;;;28.55;;
51286;SDS011;37364;46.974;18.916;2023-06-22T07:54:39;47.15;;;22.38;;
51286;SDS011;37364;46.974;18.916;2023-06-22T07:57:09;63.38;;;23.08;;
51286;SDS011;37364;46.974;18.916;2023-06-22T07:59:39;41.35;;;21.70;;
51286;SDS011;37364;46.974;18.916;2023-06-22T08:02:12;41.25;;;16.45;;
51286;SDS011;37364;46.974;18.916;2023-06-22T08:04:45;31.50;;;13.32;;
51286;SDS011;37364;46.974;18.916;2023-06-22T08:07:15;36.20;;;14.02;;
51286;SDS011;37364;46.974;18.916;2023-06-22T08:09:47;31.95;;;12.57;;
51286;SDS011;37364;46.974;18.916;2023-06-22T08:12:17;38.25;;;12.98;;
51286;SDS011;37364;46.974;18.916;2023-06-22T08:14:48;29.27;;;10.00;;
51286;SDS011;37364;46.974;18.916;2023-06-22T08:17:19;18.08;;;8.50;;
51286;SDS011;37364;46.974;18.916;2023-06-22T08:19:51;25.90;;;9.75;;
51286;SDS011;37364;46.974;18.916;2023-06-22T08:22:22;26.42;;;9.02;;
51286;SDS011;37364;46.974;18.916;2023-06-22T08:24:52;21.33;;;10.68;;
51286;SDS011;37364;46.974;18.916;2023-06-22T08:27:22;39.47;;;11.18;;
51286;SDS011;37364;46.974;18.916;2023-06-22T08:29:55;32.35;;;12.45;;
51286;SDS011;37364;46.974;18.916;2023-06-22T08:32:25;45.00;;;12.60;;
51286;SDS011;37364;46.974;18.916;2023-06-22T08:34:59;31.08;;;15.70;;
51286;SDS011;37364;46.974;18.916;2023-06-22T08:37:29;41.75;;;16.35;;
51286;SDS011;37364;46.974;18.916;2023-06-22T08:40:03;47.33;;;19.23;;
51286;SDS011;37364;46.974;18.916;2023-06-22T08:42:35;49.67;;;16.90;;
51286;SDS011;37364;46.974;18.916;2023-06-22T08:45:06;35.72;;;12.23;;
51286;SDS011;37364;46.974;18.916;2023-06-22T08:47:38;36.70;;;14.75;;
51286;SDS011;37364;46.974;18.916;2023-06-22T08:50:11;46.67;;;18.77;;
51286;SDS011;37364;46.974;18.916;2023-06-22T08:52:42;74.22;;;18.80;;
51286;SDS011;37364;46.974;18.916;2023-06-22T08:55:12;36.38;;;16.13;;
51286;SDS011;37364;46.974;18.916;2023-06-22T08:57:42;34.38;;;17.58;;
51286;SDS011;37364;46.974;18.916;2023-06-22T09:00:13;38.22;;;14.05;;
51286;SDS011;37364;46.974;18.916;2023-06-22T09:02:47;40.92;;;14.40;;
51286;SDS011;37364;46.974;18.916;2023-06-22T09:05:21;31.77;;;15.65;;
51286;SDS011;37364;46.974;18.916;2023-06-22T09:07:52;37.55;;;15.13;;
51286;SDS011;37364;46.974;18.916;2023-06-22T09:10:25;39.03;;;13.82;;
51286;SDS011;37364;46.974;18.916;2023-06-22T09:12:56;37.00;;;15.27;;
51286;SDS011;37364;46.974;18.916;2023-06-22T09:15:27;32.83;;;13.38;;
51286;SDS011;37364;46.974;18.916;2023-06-22T09:17:58;43.78;;;14.57;;
51286;SDS011;37364;46.974;18.916;2023-06-22T09:20:31;43.58;;;12.95;;
51286;SDS011;37364;46.974;18.916;2023-06-22T09:23:01;29.20;;;12.43;;
51286;SDS011;37364;46.974;18.916;2023-06-22T09:25:31;45.13;;;12.65;;
51286;SDS011;37364;46.974;18.916;2023-06-22T09:28:02;45.72;;;12.27;;
51286;SDS011;37364;46.974;18.916;2023-06-22T09:30:32;47.97;;;23.30;;
51286;SDS011;37364;46.974;18.916;2023-06-22T09:33:03;49.88;;;21.55;;
51286;SDS011;37364;46.974;18.916;2023-06-22T09:35:36;37.13;;;18.25;;
51286;SDS011;37364;46.974;18.916;2023-06-22T09:38:06;48.42;;;16.05;;
51286;SDS011;37364;46.974;18.916;2023-06-22T09:40:36;45.75;;;16.80;;
51286;SDS011;37364;46.974;18.916;2023-06-22T09:43:07;46.80;;;19.25;;
51286;SDS011;37364;46.974;18.916;2023-06-22T09:45:37;54.50;;;17.08;;
51286;SDS011;37364;46.974;18.916;2023-06-22T09:48:08;40.45;;;15.80;;
51286;SDS011;37364;46.974;18.916;2023-06-22T09:50:41;44.30;;;13.15;;
51286;SDS011;37364;46.974;18.916;2023-06-22T09:53:11;32.03;;;11.60;;
51286;SDS011;37364;46.974;18.916;2023-06-22T09:55:42;38.97;;;9.70;;
51286;SDS011;37364;46.974;18.916;2023-06-22T09:58:12;18.90;;;9.95;;
51286;SDS011;37364;46.974;18.916;2023-06-22T10:00:42;47.15;;;13.45;;
51286;SDS011;37364;46.974;18.916;2023-06-22T10:03:13;25.15;;;12.68;;
51286;SDS011;37364;46.974;18.916;2023-06-22T10:05:46;23.20;;;10.90;;
51286;SDS011;37364;46.974;18.916;2023-06-22T10:08:16;17.30;;;9.73;;
51286;SDS011;37364;46.974;18.916;2023-06-22T10:10:47;41.03;;;11.32;;
51286;SDS011;37364;46.974;18.916;2023-06-22T10:13:19;25.60;;;9.77;;
51286;SDS011;37364;46.974;18.916;2023-06-22T10:15:49;33.10;;;9.00;;
51286;SDS011;37364;46.974;18.916;2023-06-22T10:18:20;19.55;;;8.07;;
51286;SDS011;37364;46.974;18.916;2023-06-22T10:20:52;36.25;;;10.73;;
51286;SDS011;37364;46.974;18.916;2023-06-22T10:23:23;27.60;;;10.52;;
51286;SDS011;37364;46.974;18.916;2023-06-22T10:25:53;32.15;;;10.20;;
51286;SDS011;37364;46.974;18.916;2023-06-22T10:28:25;16.80;;;10.07;;
51286;SDS011;37364;46.974;18.916;2023-06-22T10:30:58;26.60;;;8.77;;
51286;SDS011;37364;46.974;18.916;2023-06-22T10:33:29;18.08;;;8.95;;
51286;SDS011;37364;46.974;18.916;2023-06-22T10:36:01;30.40;;;11.32;;
51286;SDS011;37364;46.974;18.916;2023-06-22T10:38:32;32.70;;;10.95;;
51286;SDS011;37364;46.974;18.916;2023-06-22T10:41:02;26.38;;;11.05;;
51286;SDS011;37364;46.974;18.916;2023-06-22T10:43:32;28.05;;;10.75;;
51286;SDS011;37364;46.974;18.916;2023-06-22T10:46:02;23.30;;;11.80;;
51286;SDS011;37364;46.974;18.916;2023-06-22T10:48:33;33.65;;;11.60;;
51286;SDS011;37364;46.974;18.916;2023-06-22T10:51:06;25.05;;;11.30;;
51286;SDS011;37364;46.974;18.916;2023-06-22T10:53:36;30.83;;;12.13;;
51286;SDS011;37364;46.974;18.916;2023-06-22T10:56:06;35.40;;;12.35;;
51286;SDS011;37364;46.974;18.916;2023-06-22T10:58:36;18.60;;;11.90;;
51286;SDS011;37364;46.974;18.916;2023-06-22T11:01:06;32.83;;;11.98;;
51286;SDS011;37364;46.974;18.916;2023-06-22T11:03:55;27.83;;;11.65;;
51286;SDS011;37364;46.974;18.916;2023-06-22T11:06:28;56.13;;;12.77;;
51286;SDS011;37364;46.974;18.916;2023-06-22T11:08:58;28.92;;;12.25;;
51286;SDS011;37364;46.974;18.916;2023-06-22T11:11:50;29.85;;;12.43;;
51286;SDS011;37364;46.974;18.916;2023-06-22T11:14:21;38.85;;;13.18;;
51286;SDS011;37364;46.974;18.916;2023-06-22T11:16:52;44.78;;;13.35;;
51286;SDS011;37364;46.974;18.916;2023-06-22T11:19:23;57.75;;;14.07;;
51286;SDS011;37364;46.974;18.916;2023-06-22T11:21:55;34.30;;;12.40;;
51286;SDS011;37364;46.974;18.916;2023-06-22T11:24:25;32.22;;;11.35;;
51286;SDS011;37364;46.974;18.916;2023-06-22T11:26:56;22.35;;;10.18;;
51286;SDS011;37364;46.974;18.916;2023-06-22T11:29:26;34.58;;;12.60;;
51286;SDS011;37364;46.974;18.916;2023-06-22T11:32:04;25.67;;;12.02;;
51286;SDS011;37364;46.974;18.916;2023-06-22T11:34:37;35.70;;;12.85;;
51286;SDS011;37364;46.974;18.916;2023-06-22T11:37:10;27.38;;;11.70;;
51286;SDS011;37364;46.974;18.916;2023-06-22T11:39:40;17.38;;;10.70;;
51286;SDS011;37364;46.974;18.916;2023-06-22T11:42:19;21.25;;;11.07;;
51286;SDS011;37364;46.974;18.916;2023-06-22T11:44:50;24.23;;;11.00;;
51286;SDS011;37364;46.974;18.916;2023-06-22T11:47:21;30.08;;;10.50;;
51286;SDS011;37364;46.974;18.916;2023-06-22T11:49:51;29.70;;;10.88;;
51286;SDS011;37364;46.974;18.916;2023-06-22T11:52:24;22.77;;;11.35;;
51286;SDS011;37364;46.974;18.916;2023-06-22T11:54:54;23.75;;;10.35;;
51286;SDS011;37364;46.974;18.916;2023-06-22T11:57:26;23.33;;;10.10;;
51286;SDS011;37364;46.974;18.916;2023-06-22T11:59:56;25.02;;;10.32;;
51286;SDS011;37364;46.974;18.916;2023-06-22T12:02:26;27.40;;;10.73;;
51286;SDS011;37364;46.974;18.916;2023-06-22T12:04:57;20.58;;;9.25;;
51286;SDS011;37364;46.974;18.916;2023-06-22T12:07:31;31.88;;;10.00;;
51286;SDS011;37364;46.974;18.916;2023-06-22T12:10:01;36.38;;;11.07;;
51286;SDS011;37364;46.974;18.916;2023-06-22T12:12:31;23.40;;;9.90;;
51286;SDS011;37364;46.974;18.916;2023-06-22T12:15:02;26.80;;;10.82;;
51286;SDS011;37364;46.974;18.916;2023-06-22T12:17:34;27.20;;;10.13;;
51286;SDS011;37364;46.974;18.916;2023-06-22T12:20:05;26.67;;;10.23;;
51286;SDS011;37364;46.974;18.916;2023-06-22T12:22:40;35.33;;;9.93;;
51286;SDS011;37364;46.974;18.916;2023-06-22T12:25:10;28.70;;;10.05;;
51286;SDS011;37364;46.974;18.916;2023-06-22T12:27:41;24.48;;;10.20;;
51286;SDS011;37364;46.974;18.916;2023-06-22T12:30:11;23.65;;;10.35;;
51286;SDS011;37364;46.974;18.916;2023-06-22T12:32:41;35.55;;;10.90;;
51286;SDS011;37364;46.974;18.916;2023-06-22T12:35:11;28.70;;;9.48;;
51286;SDS011;37364;46.974;18.916;2023-06-22T12:37:45;22.20;;;10.38;;
51286;SDS011;37364;46.974;18.916;2023-06-22T12:40:15;37.03;;;9.93;;
51286;SDS011;37364;46.974;18.916;2023-06-22T12:42:45;34.28;;;10.77;;
51286;SDS011;37364;46.974;18.916;2023-06-22T12:45:16;38.42;;;10.32;;
51286;SDS011;37364;46.974;18.916;2023-06-22T12:47:48;22.75;;;10.68;;
51286;SDS011;37364;46.974;18.916;2023-06-22T12:50:19;38.45;;;10.57;;
51286;SDS011;37364;46.974;18.916;2023-06-22T12:52:52;24.35;;;9.80;;
51286;SDS011;37364;46.974;18.916;2023-06-22T12:55:22;23.38;;;9.30;;
51286;SDS011;37364;46.974;18.916;2023-06-22T12:57:52;39.85;;;10.00;;
51286;SDS011;37364;46.974;18.916;2023-06-22T13:00:22;20.10;;;10.60;;
51286;SDS011;37364;46.974;18.916;2023-06-22T13:02:54;26.08;;;10.88;;
51286;SDS011;37364;46.974;18.916;2023-06-22T13:05:25;33.13;;;10.23;;
51286;SDS011;37364;46.974;18.916;2023-06-22T13:07:58;18.80;;;10.30;;
51286;SDS011;37364;46.974;18.916;2023-06-22T13:10:29;33.05;;;10.88;;
51286;SDS011;37364;46.974;18.916;2023-06-22T13:13:00;30.30;;;9.77;;
51286;SDS011;37364;46.974;18.916;2023-06-22T13:15:30;20.02;;;10.88;;
51286;SDS011;37364;46.974;18.916;2023-06-22T13:18:00;30.30;;;10.57;;
51286;SDS011;37364;46.974;18.916;2023-06-22T13:20:30;17.40;;;8.68;;
51286;SDS011;37364;46.974;18.916;2023-06-22T13:23:03;28.25;;;8.60;;
51286;SDS011;37364;46.974;18.916;2023-06-22T13:25:33;17.08;;;8.30;;
51286;SDS011;37364;46.974;18.916;2023-06-22T13:28:03;29.08;;;9.35;;
51286;SDS011;37364;46.974;18.916;2023-06-22T13:30:49;26.95;;;9.15;;
51286;SDS011;37364;46.974;18.916;2023-06-22T13:33:21;26.88;;;8.93;;
51286;SDS011;37364;46.974;18.916;2023-06-22T13:35:51;43.03;;;8.68;;
51286;SDS011;37364;46.974;18.916;2023-06-22T13:38:24;24.30;;;9.27;;
51286;SDS011;37364;46.974;18.916;2023-06-22T13:40:54;26.35;;;8.25;;
51286;SDS011;37364;46.974;18.916;2023-06-22T13:43:26;20.17;;;7.90;;
51286;SDS011;37364;46.974;18.916;2023-06-22T13:45:57;21.58;;;8.30;;
51286;SDS011;37364;46.974;18.916;2023-06-22T13:48:27;17.83;;;8.20;;
51286;SDS011;37364;46.974;18.916;2023-06-22T13:50:58;20.70;;;8.07;;
51286;SDS011;37364;46.974;18.916;2023-06-22T13:53:30;24.27;;;8.32;;
51286;SDS011;37364;46.974;18.916;2023-06-22T13:56:00;15.80;;;7.82;;
51286;SDS011;37364;46.974;18.916;2023-06-22T13:58:30;28.98;;;8.55;;
51286;SDS011;37364;46.974;18.916;2023-06-22T14:01:01;23.77;;;8.52;;
51286;SDS011;37364;46.974;18.916;2023-06-22T14:03:31;21.90;;;8.73;;
51286;SDS011;37364;46.974;18.916;2023-06-22T14:06:01;26.73;;;8.90;;
51286;SDS011;37364;46.974;18.916;2023-06-22T14:08:35;22.80;;;7.78;;
51286;SDS011;37364;46.974;18.916;2023-06-22T14:11:07;26.25;;;7.60;;
51286;SDS011;37364;46.974;18.916;2023-06-22T14:13:38;25.25;;;8.05;;
51286;SDS011;37364;46.974;18.916;2023-06-22T14:16:09;33.57;;;9.37;;
51286;SDS011;37364;46.974;18.916;2023-06-22T14:18:40;25.13;;;8.95;;
51286;SDS011;37364;46.974;18.916;2023-06-22T14:21:10;34.95;;;8.55;;
51286;SDS011;37364;46.974;18.916;2023-06-22T14:23:43;20.33;;;7.57;;
51286;SDS011;37364;46.974;18.916;2023-06-22T14:26:16;21.70;;;8.13;;